Time;durP1;ratioP1;P1;durP2;ratioP2;P2;SDS_P1;SDS_P2;PMS_P1;PMS_P2;Temp;Humidity;BMP_temperature;BMP_pressure;BME280_temperature;BME280_humidity;BME280_pressure;Samples;Min_cycle;Max_cycle;Signal;HPM_P1;HPM_P2
2022/03/08 00:01:58;;;;;;;;;;;;;;;;;;5014999;28;19921;-54
2022/03/08 00:04:25;;;;;;;;;;;;;;;;;;5010770;28;19933;-51
2022/03/08 00:06:50;;;;;;;;;;;;;;;;;;5011278;28;19922;-52
2022/03/08 00:09:16;;;;;;;;;;;;;;;;;;5014367;28;20446;-50
2022/03/08 00:11:41;;;;;;;;;;;;;;;;;;5016612;28;19921;-51
2022/03/08 00:14:06;;;;;;;;;;;;;;;;;;5016835;28;19932;-52
2022/03/08 00:16:31;;;;;;;;;;;;;;;;;;5016752;28;20319;-54
2022/03/08 00:18:56;;;;;;;;;;;;;;;;;;5013393;28;19917;-52
2022/03/08 00:21:21;;;;;;;;;;;;;;;;;;5013916;28;19921;-49
2022/03/08 00:23:47;;;;;;;;;;;;;;;;;;5013052;28;19917;-54
2022/03/08 00:26:12;;;;;;;;;;;;;;;;;;5015154;28;19939;-54
2022/03/08 00:28:37;;;;;;;;;;;;;;;;;;5017875;28;19933;-50
2022/03/08 00:31:02;;;;;;;;;;;;;;;;;;5012601;28;19951;-49
2022/03/08 00:33:27;;;;;;;;;;;;;;;;;;5014362;28;19917;-55
2022/03/08 00:35:53;;;;;;;;;;;;;;;;;;5012772;28;19972;-54
2022/03/08 00:38:18;;;;;;;;;;;;;;;;;;5010069;28;20027;-53
2022/03/08 00:40:43;;;;;;;;;;;;;;;;;;5014667;28;19921;-52
2022/03/08 00:43:08;;;;;;;;;;;;;;;;;;5017445;28;19965;-54
2022/03/08 00:45:33;;;;;;;;;;;;;;;;;;5008808;28;19928;-50
2022/03/08 00:47:58;;;;;;;;;;;;;;;;;;5011684;28;19921;-52
2022/03/08 00:50:23;;;;;;;;;;;;;;;;;;5013367;28;20045;-51
2022/03/08 00:52:49;;;;;;;;;;;;;;;;;;5014628;28;19921;-52
2022/03/08 00:55:14;;;;;;;;;;;;;;;;;;5007988;28;20391;-49
2022/03/08 00:57:39;;;;;;;;;;;;;;;;;;5017134;28;19923;-50
2022/03/08 01:00:04;;;;;;;;;;;;;;;;;;5011784;28;20550;-52
2022/03/08 01:02:29;;;;;;;;;;;;;;;;;;5018117;28;19922;-54
2022/03/08 01:04:54;;;;;;;;;;;;;;;;;;5015731;28;20364;-50
2022/03/08 01:07:19;;;;;;;;;;;;;;;;;;5009610;28;19921;-52
2022/03/08 01:09:45;;;;;;;;;;;;;;;;;;5015629;28;19929;-49
2022/03/08 01:12:10;;;;;;;;;;;;;;;;;;5015328;28;20296;-50
2022/03/08 01:14:35;;;;;;;;;;;;;;;;;;5015353;28;19921;-49
2022/03/08 01:17:00;;;;;;;;;;;;;;;;;;5010299;28;20368;-49
2022/03/08 01:19:25;;;;;;;;;;;;;;;;;;5009963;28;19921;-53
2022/03/08 01:21:50;;;;;;;;;;;;;;;;;;5014940;28;19917;-53
2022/03/08 01:24:15;;;;;;;;;;;;;;;;;;5012658;28;19956;-54
2022/03/08 01:26:41;;;;;;;;;;;;;;;;;;5007137;28;19970;-51
2022/03/08 01:29:06;;;;;;;;;;;;;;;;;;5012257;28;20374;-48
2022/03/08 01:31:31;;;;;;;;;;;;;;;;;;5015582;28;19921;-50
2022/03/08 01:33:57;;;;;;;;;;;;;;;;;;5016446;28;19960;-53
2022/03/08 01:36:22;;;;;;;;;;;;;;;;;;5014879;28;20439;-51
2022/03/08 01:38:47;;;;;;;;;;;;;;;;;;5013623;28;20095;-54
2022/03/08 01:41:12;;;;;;;;;;;;;;;;;;5014143;28;19920;-53
2022/03/08 01:43:37;;;;;;;;;;;;;;;;;;5010701;28;19917;-54
2022/03/08 01:46:02;;;;;;;;;;;;;;;;;;5013973;28;19929;-55
2022/03/08 01:48:28;;;;;;;;;;;;;;;;;;5012866;28;20376;-54
2022/03/08 01:50:53;;;;;;;;;;;;;;;;;;5007504;28;19925;-55
2022/03/08 01:53:19;;;;;;;;;;;;;;;;;;5013411;28;19922;-49
2022/03/08 01:55:44;;;;;;;;;;;;;;;;;;5010676;28;19984;-50
2022/03/08 01:58:09;;;;;;;;;;;;;;;;;;5014104;28;19982;-51
2022/03/08 02:00:34;;;;;;;;;;;;;;;;;;5012998;28;19924;-51
2022/03/08 02:02:59;;;;;;;;;;;;;;;;;;5016701;28;20393;-52
2022/03/08 02:05:24;;;;;;;;;;;;;;;;;;5011536;28;20779;-54
2022/03/08 02:07:50;;;;;;;;;;;;;;;;;;5012249;28;20036;-54
2022/03/08 02:10:15;;;;;;;;;;;;;;;;;;5011236;28;20332;-56
2022/03/08 02:12:40;;;;;;;;;;;;;;;;;;5013994;28;20469;-53
2022/03/08 02:15:05;;;;;;;;;;;;;;;;;;5013102;28;19921;-54
2022/03/08 02:17:30;;;;;;;;;;;;;;;;;;5015353;28;19945;-52
2022/03/08 02:19:56;;;;;;;;;;;;;;;;;;5014176;28;20527;-53
2022/03/08 02:22:21;;;;;;;;;;;;;;;;;;5010608;28;19926;-54
2022/03/08 02:24:46;;;;;;;;;;;;;;;;;;5010965;28;19924;-54
2022/03/08 02:27:15;;;;;;;;;;;;;;;;;;5014089;28;20607;-54
2022/03/08 02:29:40;;;;;;;;;;;;;;;;;;5012973;28;19925;-54
2022/03/08 02:32:05;;;;;;;;;;;;;;;;;;5015611;28;20290;-54
2022/03/08 02:34:30;;;;;;;;;;;;;;;;;;5015936;28;19941;-55
2022/03/08 02:36:55;;;;;;;;;;;;;;;;;;5016579;28;19922;-54
2022/03/08 02:39:21;;;;;;;;;;;;;;;;;;5020142;28;20285;-54
2022/03/08 02:41:46;;;;;;;;;;;;;;;;;;5015138;28;20305;-51
2022/03/08 02:44:11;;;;;;;;;;;;;;;;;;5016350;28;19925;-53
2022/03/08 02:46:45;;;;;;;;;;;;;;;;;;5015232;28;19924;-53
2022/03/08 02:49:10;;;;;;;;;;;;;;;;;;5014980;28;19955;-52
2022/03/08 02:51:35;;;;;;;;;;;;;;;;;;5017018;28;19968;-55
2022/03/08 02:54:01;;;;;;;;;;;;;;;;;;5016463;28;19976;-53
2022/03/08 02:56:26;;;;;;;;;;;;;;;;;;5016835;28;20293;-53
2022/03/08 02:58:51;;;;;;;;;;;;;;;;;;5018187;28;19976;-54
2022/03/08 03:01:16;;;;;;;;;;;;;;;;;;5013420;28;20059;-51
2022/03/08 03:03:41;;;;;;;;;;;;;;;;;;5016672;28;20420;-52
2022/03/08 03:06:06;;;;;;;;;;;;;;;;;;5017221;28;19922;-54
2022/03/08 03:08:31;;;;;;;;;;;;;;;;;;5016570;28;19921;-48
2022/03/08 03:10:57;;;;;;;;;;;;;;;;;;5011167;28;19920;-50
2022/03/08 03:13:22;;;;;;;;;;;;;;;;;;5016996;28;19928;-54
2022/03/08 03:15:47;;;;;;;;;;;;;;;;;;5017692;28;19968;-56
2022/03/08 03:18:12;;;;;;;;;;;;;;;;;;5009879;28;19925;-52
2022/03/08 03:20:37;;;;;;;;;;;;;;;;;;5016125;28;19928;-50
2022/03/08 03:23:02;;;;;;;;;;;;;;;;;;5015382;28;19922;-51
2022/03/08 03:25:28;;;;;;;;;;;;;;;;;;5017058;28;19920;-49
2022/03/08 03:27:53;;;;;;;;;;;;;;;;;;5012181;28;19921;-53
2022/03/08 03:30:18;;;;;;;;;;;;;;;;;;5015634;28;20448;-49
2022/03/08 03:32:43;;;;;;;;;;;;;;;;;;5017522;28;19992;-52
2022/03/08 03:35:08;;;;;;;;;;;;;;;;;;5015203;28;19980;-50
2022/03/08 03:37:33;;;;;;;;;;;;;;;;;;5016995;28;19972;-54
2022/03/08 03:39:59;;;;;;;;;;;;;;;;;;5012529;28;19925;-51
2022/03/08 03:42:24;;;;;;;;;;;;;;;;;;5018779;28;20396;-50
2022/03/08 03:44:49;;;;;;;;;;;;;;;;;;5014203;28;20061;-48
2022/03/08 03:47:14;;;;;;;;;;;;;;;;;;5015423;28;19922;-50
2022/03/08 03:49:39;;;;;;;;;;;;;;;;;;5012656;28;20272;-48
2022/03/08 03:52:04;;;;;;;;;;;;;;;;;;5014092;28;20011;-52
2022/03/08 03:54:29;;;;;;;;;;;;;;;;;;5016877;28;20408;-52
2022/03/08 03:56:55;;;;;;;;;;;;;;;;;;5014736;28;19922;-47
2022/03/08 03:59:20;;;;;;;;;;;;;;;;;;5013924;28;19998;-53
2022/03/08 04:01:45;;;;;;;;;;;;;;;;;;5016504;28;20369;-51
2022/03/08 04:04:10;;;;;;;;;;;;;;;;;;5014182;28;19968;-52
2022/03/08 04:06:35;;;;;;;;;;;;;;;;;;5016081;28;19964;-51
2022/03/08 04:09:01;;;;;;;;;;;;;;;;;;5013768;28;20436;-53
2022/03/08 04:11:26;;;;;;;;;;;;;;;;;;5012417;28;20335;-54
2022/03/08 04:13:51;;;;;;;;;;;;;;;;;;5016845;28;20003;-48
2022/03/08 04:16:16;;;;;;;;;;;;;;;;;;5014943;28;19924;-52
2022/03/08 04:18:41;;;;;;;;;;;;;;;;;;5015757;28;20404;-50
2022/03/08 04:21:06;;;;;;;;;;;;;;;;;;5013448;28;20016;-50
2022/03/08 04:23:31;;;;;;;;;;;;;;;;;;5012389;28;19925;-53
2022/03/08 04:25:56;;;;;;;;;;;;;;;;;;5009593;28;20009;-52
2022/03/08 04:28:22;;;;;;;;;;;;;;;;;;5009184;28;20031;-53
2022/03/08 04:30:47;;;;;;;;;;;;;;;;;;5014401;28;20342;-54
2022/03/08 04:33:12;;;;;;;;;;;;;;;;;;5011333;28;20870;-51
2022/03/08 04:35:37;;;;;;;;;;;;;;;;;;5012128;28;19917;-51
2022/03/08 04:38:02;;;;;;;;;;;;;;;;;;5016580;28;19925;-52
2022/03/08 04:40:28;;;;;;;;;;;;;;;;;;5017771;28;19921;-55
2022/03/08 04:42:53;;;;;;;;;;;;;;;;;;5013759;28;19922;-54
2022/03/08 04:45:18;;;;;;;;;;;;;;;;;;5010860;28;19921;-51
2022/03/08 04:47:43;;;;;;;;;;;;;;;;;;5012786;28;19928;-51
2022/03/08 04:50:08;;;;;;;;;;;;;;;;;;5012659;28;19949;-52
2022/03/08 04:52:33;;;;;;;;;;;;;;;;;;5018923;28;19930;-54
2022/03/08 04:54:59;;;;;;;;;;;;;;;;;;5013973;28;20572;-54
2022/03/08 04:57:24;;;;;;;;;;;;;;;;;;5011359;28;19924;-50
2022/03/08 04:59:49;;;;;;;;;;;;;;;;;;5012334;28;19925;-53
2022/03/08 05:02:14;;;;;;;;;;;;;;;;;;5016972;28;20408;-52
2022/03/08 05:04:40;;;;;;;;;;;;;;;;;;5012105;28;19922;-52
2022/03/08 05:07:05;;;;;;;;;;;;;;;;;;5015054;28;20938;-53
2022/03/08 05:09:30;;;;;;;;;;;;;;;;;;5015255;28;19925;-51
2022/03/08 05:11:55;;;;;;;;;;;;;;;;;;5010729;28;20581;-51
2022/03/08 05:14:20;;;;;;;;;;;;;;;;;;5013213;28;19924;-51
2022/03/08 05:16:46;;;;;;;;;;;;;;;;;;5014347;28;19932;-54
2022/03/08 05:19:11;;;;;;;;;;;;;;;;;;5016425;28;19967;-54
2022/03/08 05:21:36;;;;;;;;;;;;;;;;;;5012611;28;19948;-52
2022/03/08 05:24:01;;;;;;;;;;;;;;;;;;5011539;28;19928;-49
2022/03/08 05:26:26;;;;;;;;;;;;;;;;;;5012438;28;19921;-53
2022/03/08 05:28:51;;;;;;;;;;;;;;;;;;5010112;28;20377;-54
2022/03/08 05:31:16;;;;;;;;;;;;;;;;;;5014173;28;20027;-52
2022/03/08 05:33:42;;;;;;;;;;;;;;;;;;5014346;28;19917;-50
2022/03/08 05:36:07;;;;;;;;;;;;;;;;;;5017188;28;20353;-52
2022/03/08 05:38:32;;;;;;;;;;;;;;;;;;5010340;28;20008;-53
2022/03/08 05:40:57;;;;;;;;;;;;;;;;;;5008857;28;19917;-49
2022/03/08 05:43:22;;;;;;;;;;;;;;;;;;5017527;28;19963;-53
2022/03/08 05:45:47;;;;;;;;;;;;;;;;;;5013271;28;20021;-54
2022/03/08 05:48:12;;;;;;;;;;;;;;;;;;5012471;28;20003;-54
2022/03/08 05:50:38;;;;;;;;;;;;;;;;;;5013576;28;19932;-53
2022/03/08 05:53:03;;;;;;;;;;;;;;;;;;5013372;28;19922;-52
2022/03/08 05:55:28;;;;;;;;;;;;;;;;;;5011879;28;19940;-54
2022/03/08 05:57:53;;;;;;;;;;;;;;;;;;5013324;28;19921;-52
2022/03/08 06:00:18;;;;;;;;;;;;;;;;;;5008711;28;20464;-53
2022/03/08 06:02:43;;;;;;;;;;;;;;;;;;5014725;28;19925;-50
2022/03/08 06:05:12;;;;;;;;;;;;;;;;;;5006536;28;20261;-52
2022/03/08 06:07:37;;;;;;;;;;;;;;;;;;5007896;28;19924;-51
2022/03/08 06:10:03;;;;;;;;;;;;;;;;;;5015665;28;20031;-55
2022/03/08 06:12:29;;;;;;;;;;;;;;;;;;5014010;28;19972;-53
2022/03/08 06:14:54;;;;;;;;;;;;;;;;;;5018046;28;19960;-50
2022/03/08 06:17:19;;;;;;;;;;;;;;;;;;5014027;28;20316;-50
2022/03/08 06:19:44;;;;;;;;;;;;;;;;;;5013635;28;19925;-53
2022/03/08 06:22:09;;;;;;;;;;;;;;;;;;5014380;28;19917;-51
2022/03/08 06:24:34;;;;;;;;;;;;;;;;;;5016737;28;20464;-52
2022/03/08 06:27:00;;;;;;;;;;;;;;;;;;5021065;28;19925;-53
2022/03/08 06:29:25;;;;;;;;;;;;;;;;;;5018652;28;20424;-49
2022/03/08 06:31:50;;;;;;;;;;;;;;;;;;5016192;28;20372;-47
2022/03/08 06:34:15;;;;;;;;;;;;;;;;;;5016064;28;19940;-53
2022/03/08 06:36:41;;;;;;;;;;;;;;;;;;5015012;28;20413;-51
2022/03/08 06:39:06;;;;;;;;;;;;;;;;;;5016492;28;19924;-48
2022/03/08 06:41:32;;;;;;;;;;;;;;;;;;5017341;28;19937;-54
2022/03/08 06:43:57;;;;;;;;;;;;;;;;;;5018071;28;19917;-47
2022/03/08 06:46:23;;;;;;;;;;;;;;;;;;5017428;28;20234;-50
2022/03/08 06:48:48;;;;;;;;;;;;;;;;;;5019198;28;19921;-48
2022/03/08 06:51:14;;;;;;;;;;;;;;;;;;5018229;28;19979;-53
2022/03/08 06:53:39;;;;;;;;;;;;;;;;;;5018874;28;19964;-51
2022/03/08 06:56:05;;;;;;;;;;;;;;;;;;5016524;28;20081;-51
2022/03/08 06:58:30;;;;;;;;;;;;;;;;;;5018736;28;19917;-51
2022/03/08 07:00:55;;;;;;;;;;;;;;;;;;5018816;28;19925;-48
2022/03/08 07:03:20;;;;;;;;;;;;;;;;;;5022796;28;19944;-51
2022/03/08 07:05:46;;;;;;;;;;;;;;;;;;5017755;28;19987;-50
2022/03/08 07:08:11;;;;;;;;;;;;;;;;;;5017064;28;20388;-51
2022/03/08 07:10:37;;;;;;;;;;;;;;;;;;5015703;28;19929;-51
2022/03/08 07:13:02;;;;;;;;;;;;;;;;;;5016872;28;19917;-49
2022/03/08 07:15:27;;;;;;;;;;;;;;;;;;5013777;28;20381;-50
2022/03/08 07:17:52;;;;;;;;;;;;;;;;;;5016410;28;19980;-52
2022/03/08 07:20:17;;;;;;;;;;;;;;;;;;5013506;28;19917;-51
2022/03/08 07:22:42;;;;;;;;;;;;;;;;;;5033411;28;20447;-49
2022/03/08 07:25:08;;;;;;;;;;;;;;;;;;5016957;28;20381;-50
2022/03/08 07:27:33;;;;;;;;;;;;;;;;;;5018770;28;19922;-48
2022/03/08 07:29:58;;;;;;;;;;;;;;;;;;5016364;28;20396;-48
2022/03/08 07:32:23;;;;;;;;;;;;;;;;;;5015605;28;19924;-49
2022/03/08 07:34:48;;;;;;;;;;;;;;;;;;5020223;28;19956;-49
2022/03/08 07:37:13;;;;;;;;;;;;;;;;;;5015444;28;20427;-41
2022/03/08 07:39:39;;;;;;;;;;;;;;;;;;5018197;28;19928;-41
2022/03/08 07:42:04;;;;;;;;;;;;;;;;;;5015668;28;19964;-43
2022/03/08 07:44:29;;;;;;;;;;;;;;;;;;5013227;28;19921;-41
2022/03/08 07:46:55;;;;;;;;;;;;;;;;;;5013762;28;19947;-41
2022/03/08 07:49:21;;;;;;;;;;;;;;;;;;5011721;28;19971;-45
2022/03/08 07:51:46;;;;;;;;;;;;;;;;;;5015504;28;19925;-44
2022/03/08 07:54:12;;;;;;;;;;;;;;;;;;5014855;28;19932;-41
2022/03/08 07:56:37;;;;;;;;;;;;;;;;;;5011833;28;19972;-42
2022/03/08 07:59:02;;;;;;;;;;;;;;;;;;5010869;28;19917;-44
2022/03/08 08:04:11;;;;;;;;;;;;;;;;;;5012874;28;19928;-41
2022/03/08 08:06:37;;;;;;;;;;;;;;;;;;5011447;28;19921;-45
2022/03/08 08:09:02;;;;;;;;;;;;;;;;;;5015144;28;20452;-41
2022/03/08 08:11:27;;;;;;;;;;;;;;;;;;5013861;28;19928;-41
2022/03/08 08:13:53;;;;;;;;;;;;;;;;;;5017957;28;20403;-44
2022/03/08 08:16:18;;;;;;;;;;;;;;;;;;5019971;28;19924;-43
2022/03/08 08:18:43;;;;;;;;;;;;;;;;;;5014371;28;19921;-46
2022/03/08 08:21:08;;;;;;;;;;;;;;;;;;5018408;28;19931;-43
2022/03/08 08:23:34;;;;;;;;;;;;;;;;;;5016149;28;20645;-43
2022/03/08 08:25:59;;;;;;;;;;;;;;;;;;5011554;28;19925;-45
2022/03/08 08:28:24;;;;;;;;;;;;;;;;;;5015296;28;19971;-41
2022/03/08 08:30:49;;;;;;;;;;;;;;;;;;5011726;28;19925;-40
2022/03/08 08:33:14;;;;;;;;;;;;;;;;;;5012820;28;20028;-38
2022/03/08 08:35:40;;;;;;;;;;;;;;;;;;5013443;28;20008;-41
2022/03/08 08:38:05;;;;;;;;;;;;;;;;;;5012241;28;19921;-44
2022/03/08 08:40:31;;;;;;;;;;;;;;;;;;5011299;28;19968;-40
2022/03/08 08:42:56;;;;;;;;;;;;;;;;;;5014589;28;20377;-41
2022/03/08 08:45:22;;;;;;;;;;;;;;;;;;5013985;28;19925;-41
2022/03/08 08:47:47;;;;;;;;;;;;;;;;;;5016009;28;19917;-45
2022/03/08 08:50:12;;;;;;;;;;;;;;;;;;5015122;28;20677;-44
2022/03/08 08:52:37;;;;;;;;;;;;;;;;;;5013573;28;19928;-42
2022/03/08 08:55:02;;;;;;;;;;;;;;;;;;5012551;28;20506;-40
2022/03/08 08:57:28;;;;;;;;;;;;;;;;;;5017448;28;19988;-43
2022/03/08 08:59:53;;;;;;;;;;;;;;;;;;5013790;28;20879;-40
2022/03/08 09:02:18;;;;;;;;;;;;;;;;;;5016187;28;19921;-41
2022/03/08 09:04:43;;;;;;;;;;;;;;;;;;5013870;28;19971;-40
2022/03/08 09:07:08;;;;;;;;;;;;;;;;;;5018928;28;19924;-41
2022/03/08 09:09:34;;;;;;;;;;;;;;;;;;5010552;28;19924;-39
2022/03/08 09:11:59;;;;;;;;;;;;;;;;;;5010186;28;19923;-40
2022/03/08 09:14:24;;;;;;;;;;;;;;;;;;5013697;28;19917;-42
2022/03/08 09:16:49;;;;;;;;;;;;;;;;;;5011916;28;20443;-43
2022/03/08 09:19:14;;;;;;;;;;;;;;;;;;5010413;28;19920;-40
2022/03/08 09:21:39;;;;;;;;;;;;;;;;;;5011514;28;19926;-41
2022/03/08 09:24:05;;;;;;;;;;;;;;;;;;5010939;28;19921;-40
2022/03/08 09:26:30;;;;;;;;;;;;;;;;;;5013676;28;19924;-40
2022/03/08 09:28:55;;;;;;;;;;;;;;;;;;5015450;28;20440;-40
2022/03/08 09:31:20;;;;;;;;;;;;;;;;;;5015155;28;19926;-41
2022/03/08 09:33:45;;;;;;;;;;;;;;;;;;5012334;28;20048;-42
2022/03/08 09:36:11;;;;;;;;;;;;;;;;;;5011279;28;19961;-40
2022/03/08 09:38:37;;;;;;;;;;;;;;;;;;5012286;28;19965;-42
2022/03/08 09:41:02;;;;;;;;;;;;;;;;;;5012525;28;19917;-44
2022/03/08 09:43:28;;;;;;;;;;;;;;;;;;5017619;28;19932;-43
2022/03/08 09:45:53;;;;;;;;;;;;;;;;;;5016349;28;19988;-42
2022/03/08 09:48:18;;;;;;;;;;;;;;;;;;5018291;28;20004;-40
2022/03/08 09:50:43;;;;;;;;;;;;;;;;;;5017270;28;19929;-42
2022/03/08 09:53:08;;;;;;;;;;;;;;;;;;5019219;28;19972;-41
2022/03/08 09:55:34;;;;;;;;;;;;;;;;;;5017831;28;20012;-41
2022/03/08 09:57:59;;;;;;;;;;;;;;;;;;5014463;28;20161;-41
2022/03/08 10:00:24;;;;;;;;;;;;;;;;;;5019909;28;20005;-42
2022/03/08 10:02:49;;;;;;;;;;;;;;;;;;5020781;28;20407;-42
2022/03/08 10:05:14;;;;;;;;;;;;;;;;;;5021008;28;19961;-43
2022/03/08 10:07:39;;;;;;;;;;;;;;;;;;5019329;28;19932;-44
2022/03/08 10:10:05;;;;;;;;;;;;;;;;;;5013877;28;19925;-40
2022/03/08 10:12:30;;;;;;;;;;;;;;;;;;5016086;28;20044;-41
2022/03/08 10:14:55;;;;;;;;;;;;;;;;;;5015859;28;20400;-40
2022/03/08 10:17:20;;;;;;;;;;;;;;;;;;5015935;28;19922;-41
2022/03/08 10:19:45;;;;;;;;;;;;;;;;;;5016015;28;19921;-43
2022/03/08 10:22:10;;;;;;;;;;;;;;;;;;5013353;28;20228;-43
2022/03/08 10:24:36;;;;;;;;;;;;;;;;;;5013500;28;19960;-42
2022/03/08 10:27:01;;;;;;;;;;;;;;;;;;5018459;28;19920;-43
2022/03/08 10:29:26;;;;;;;;;;;;;;;;;;5017469;28;20367;-42
2022/03/08 10:31:51;;;;;;;;;;;;;;;;;;5018840;28;20349;-43
2022/03/08 10:34:17;;;;;;;;;;;;;;;;;;5016387;28;20400;-43
2022/03/08 10:36:42;;;;;;;;;;;;;;;;;;5016142;28;19918;-42
2022/03/08 10:39:08;;;;;;;;;;;;;;;;;;5016764;28;19925;-40
2022/03/08 10:41:33;;;;;;;;;;;;;;;;;;5016693;28;20436;-44
2022/03/08 10:43:59;;;;;;;;;;;;;;;;;;5014259;28;19921;-41
2022/03/08 10:46:26;;;;;;;;;;;;;;;;;;5017520;28;19917;-41
2022/03/08 10:48:51;;;;;;;;;;;;;;;;;;5013939;28;19925;-44
2022/03/08 10:51:17;;;;;;;;;;;;;;;;;;5011287;28;21054;-43
2022/03/08 10:53:42;;;;;;;;;;;;;;;;;;5015969;28;19921;-41
2022/03/08 10:56:07;;;;;;;;;;;;;;;;;;5014411;28;19934;-42
2022/03/08 10:58:32;;;;;;;;;;;;;;;;;;5014553;28;20439;-46
2022/03/08 11:00:59;;;;;;;;;;;;;;;;;;5013810;28;19917;-43
2022/03/08 11:03:25;;;;;;;;;;;;;;;;;;5017386;28;19921;-43
2022/03/08 11:05:50;;;;;;;;;;;;;;;;;;5013070;28;19921;-43
2022/03/08 11:08:15;;;;;;;;;;;;;;;;;;5017366;28;20312;-45
2022/03/08 11:10:41;;;;;;;;;;;;;;;;;;5015862;28;19921;-45
2022/03/08 11:13:06;;;;;;;;;;;;;;;;;;5016239;28;20675;-45
2022/03/08 11:15:31;;;;;;;;;;;;;;;;;;5015206;28;19929;-42
2022/03/08 11:17:56;;;;;;;;;;;;;;;;;;5014331;28;19921;-44
2022/03/08 11:20:21;;;;;;;;;;;;;;;;;;5015510;28;20502;-42
2022/03/08 11:22:47;;;;;;;;;;;;;;;;;;5014882;28;19925;-41
2022/03/08 11:25:12;;;;;;;;;;;;;;;;;;5012682;28;19921;-43
2022/03/08 11:27:37;;;;;;;;;;;;;;;;;;5016001;28;19980;-43
2022/03/08 11:30:02;;;;;;;;;;;;;;;;;;5015103;28;20017;-43
2022/03/08 11:32:28;;;;;;;;;;;;;;;;;;5013112;28;19921;-44
2022/03/08 11:34:53;;;;;;;;;;;;;;;;;;5017234;28;19976;-40
2022/03/08 11:37:18;;;;;;;;;;;;;;;;;;5018501;28;20025;-42
2022/03/08 11:39:43;;;;;;;;;;;;;;;;;;5017060;28;20372;-42
2022/03/08 11:42:08;;;;;;;;;;;;;;;;;;5018302;28;19916;-42
2022/03/08 11:44:33;;;;;;;;;;;;;;;;;;5013893;28;19917;-41
2022/03/08 11:46:59;;;;;;;;;;;;;;;;;;5015895;28;19952;-41
2022/03/08 11:49:24;;;;;;;;;;;;;;;;;;5015350;28;20443;-41
2022/03/08 11:51:49;;;;;;;;;;;;;;;;;;5009483;28;19925;-44
2022/03/08 11:54:14;;;;;;;;;;;;;;;;;;5011723;28;19965;-42
2022/03/08 11:56:39;;;;;;;;;;;;;;;;;;5016284;28;20380;-43
2022/03/08 11:59:04;;;;;;;;;;;;;;;;;;5016245;28;19928;-41
2022/03/08 12:01:36;;;;;;;;;;;;;;;;;;5009056;28;19949;-44
2022/03/08 12:04:01;;;;;;;;;;;;;;;;;;5017354;28;20011;-41
2022/03/08 12:06:26;;;;;;;;;;;;;;;;;;5012853;28;20441;-42
2022/03/08 12:08:52;;;;;;;;;;;;;;;;;;5013303;28;19984;-40
2022/03/08 12:11:17;;;;;;;;;;;;;;;;;;5012232;28;19930;-43
2022/03/08 12:13:42;;;;;;;;;;;;;;;;;;5015822;28;19921;-43
2022/03/08 12:16:10;;;;;;;;;;;;;;;;;;5017253;28;20458;-44
2022/03/08 12:18:35;;;;;;;;;;;;;;;;;;5012586;28;19921;-42
2022/03/08 12:21:01;;;;;;;;;;;;;;;;;;5014302;28;19925;-44
2022/03/08 12:23:26;;;;;;;;;;;;;;;;;;5014821;28;19971;-42
2022/03/08 12:25:51;;;;;;;;;;;;;;;;;;5010277;28;20491;-43
2022/03/08 12:28:16;;;;;;;;;;;;;;;;;;5013552;28;19917;-43
2022/03/08 12:30:42;;;;;;;;;;;;;;;;;;5012931;28;19943;-47
2022/03/08 12:33:08;;;;;;;;;;;;;;;;;;5011930;28;20522;-45
2022/03/08 12:35:33;;;;;;;;;;;;;;;;;;5010633;28;20013;-42
2022/03/08 12:38:03;;;;;;;;;;;;;;;;;;5012326;28;19928;-45
2022/03/08 12:40:28;;;;;;;;;;;;;;;;;;5010303;28;19972;-48
2022/03/08 12:42:53;;;;;;;;;;;;;;;;;;5012062;28;20415;-45
2022/03/08 12:45:18;;;;;;;;;;;;;;;;;;5013922;28;20424;-43
2022/03/08 12:47:43;;;;;;;;;;;;;;;;;;5013906;28;20956;-42
2022/03/08 12:50:08;;;;;;;;;;;;;;;;;;5014035;28;19921;-46
2022/03/08 12:52:34;;;;;;;;;;;;;;;;;;5012052;28;19925;-46
2022/03/08 12:54:59;;;;;;;;;;;;;;;;;;5015870;28;20012;-46
2022/03/08 12:57:24;;;;;;;;;;;;;;;;;;5009143;28;19925;-46
2022/03/08 12:59:49;;;;;;;;;;;;;;;;;;5012162;28;20412;-44
2022/03/08 13:02:14;;;;;;;;;;;;;;;;;;5012477;28;20009;-47
2022/03/08 13:04:39;;;;;;;;;;;;;;;;;;5011703;28;19921;-43
2022/03/08 13:07:05;;;;;;;;;;;;;;;;;;5008844;28;19922;-48
2022/03/08 13:09:30;;;;;;;;;;;;;;;;;;5015947;28;20341;-44
2022/03/08 13:11:55;;;;;;;;;;;;;;;;;;5014322;28;20421;-47
2022/03/08 13:14:21;;;;;;;;;;;;;;;;;;5014842;28;19918;-46
2022/03/08 13:16:46;;;;;;;;;;;;;;;;;;5015720;28;19917;-44
2022/03/08 13:19:11;;;;;;;;;;;;;;;;;;5013493;28;20476;-43
2022/03/08 13:21:36;;;;;;;;;;;;;;;;;;5015972;28;19921;-46
2022/03/08 13:24:01;;;;;;;;;;;;;;;;;;5015148;28;19928;-44
2022/03/08 13:29:10;;;;;;;;;;;;;;;;;;5013854;28;20016;-46
2022/03/08 13:31:35;;;;;;;;;;;;;;;;;;5011308;28;20028;-45
2022/03/08 13:34:01;;;;;;;;;;;;;;;;;;5011993;28;20490;-47
2022/03/08 13:36:26;;;;;;;;;;;;;;;;;;5017394;28;19975;-47
2022/03/08 13:38:51;;;;;;;;;;;;;;;;;;5013690;28;20300;-48
2022/03/08 13:41:16;;;;;;;;;;;;;;;;;;5013879;28;20034;-42
2022/03/08 13:43:41;;;;;;;;;;;;;;;;;;5011898;28;20411;-43
2022/03/08 13:46:07;;;;;;;;;;;;;;;;;;5006541;28;19928;-43
2022/03/08 13:48:32;;;;;;;;;;;;;;;;;;5007967;28;19929;-45
2022/03/08 13:50:57;;;;;;;;;;;;;;;;;;5012022;28;20289;-41
2022/03/08 13:53:22;;;;;;;;;;;;;;;;;;5007538;28;20535;-47
2022/03/08 13:55:47;;;;;;;;;;;;;;;;;;5013397;28;20008;-45
2022/03/08 13:58:13;;;;;;;;;;;;;;;;;;5012203;28;19928;-43
2022/03/08 14:00:38;;;;;;;;;;;;;;;;;;5013389;28;19917;-50
2022/03/08 14:03:03;;;;;;;;;;;;;;;;;;5009792;28;20047;-46
2022/03/08 14:05:28;;;;;;;;;;;;;;;;;;5012200;28;20008;-43
2022/03/08 14:07:53;;;;;;;;;;;;;;;;;;5010795;28;19993;-42
2022/03/08 14:10:20;;;;;;;;;;;;;;;;;;5010535;28;20381;-42
2022/03/08 14:12:46;;;;;;;;;;;;;;;;;;5010716;28;19914;-42
2022/03/08 14:15:11;;;;;;;;;;;;;;;;;;5012952;28;19936;-45
2022/03/08 14:17:36;;;;;;;;;;;;;;;;;;5015421;28;20023;-42
2022/03/08 14:20:01;;;;;;;;;;;;;;;;;;5013488;28;20419;-45
2022/03/08 14:22:26;;;;;;;;;;;;;;;;;;5010295;28;19921;-45
2022/03/08 14:24:52;;;;;;;;;;;;;;;;;;5007948;28;19938;-44
2022/03/08 14:27:17;;;;;;;;;;;;;;;;;;5014317;28;20296;-48
2022/03/08 14:29:42;;;;;;;;;;;;;;;;;;5012177;28;20029;-43
2022/03/08 14:32:07;;;;;;;;;;;;;;;;;;5018270;28;19921;-45
2022/03/08 14:34:32;;;;;;;;;;;;;;;;;;5016548;28;20320;-45
2022/03/08 14:36:58;;;;;;;;;;;;;;;;;;5018713;28;20560;-45
2022/03/08 14:39:23;;;;;;;;;;;;;;;;;;5014326;28;19944;-45
2022/03/08 14:41:48;;;;;;;;;;;;;;;;;;5016430;28;20063;-42
2022/03/08 14:44:13;;;;;;;;;;;;;;;;;;5016031;28;20318;-43
2022/03/08 14:46:39;;;;;;;;;;;;;;;;;;5015997;28;20020;-46
2022/03/08 14:49:04;;;;;;;;;;;;;;;;;;5017162;28;20472;-49
2022/03/08 14:51:29;;;;;;;;;;;;;;;;;;5013636;28;19929;-44
2022/03/08 14:53:54;;;;;;;;;;;;;;;;;;5019101;28;20028;-45
2022/03/08 14:56:19;;;;;;;;;;;;;;;;;;5018666;28;20453;-43
2022/03/08 14:58:44;;;;;;;;;;;;;;;;;;5019565;28;19917;-47
2022/03/08 15:01:10;;;;;;;;;;;;;;;;;;5017351;28;19983;-42
2022/03/08 15:03:35;;;;;;;;;;;;;;;;;;5009681;28;19933;-41
2022/03/08 15:06:00;;;;;;;;;;;;;;;;;;5011737;28;19980;-44
2022/03/08 15:08:25;;;;;;;;;;;;;;;;;;5016625;28;20428;-43
2022/03/08 15:10:51;;;;;;;;;;;;;;;;;;5016443;28;19926;-44
2022/03/08 15:13:16;;;;;;;;;;;;;;;;;;5015225;28;19952;-43
2022/03/08 15:15:41;;;;;;;;;;;;;;;;;;5015932;28;20360;-42
2022/03/08 15:18:06;;;;;;;;;;;;;;;;;;5011880;28;19925;-44
2022/03/08 15:20:31;;;;;;;;;;;;;;;;;;5015128;28;19960;-45
2022/03/08 15:22:56;;;;;;;;;;;;;;;;;;5018877;28;20377;-44
2022/03/08 15:25:21;;;;;;;;;;;;;;;;;;5015151;28;19932;-42
2022/03/08 15:27:47;;;;;;;;;;;;;;;;;;5015059;28;19972;-41
2022/03/08 15:30:12;;;;;;;;;;;;;;;;;;5011285;28;20407;-42
2022/03/08 15:32:37;;;;;;;;;;;;;;;;;;5015925;28;19921;-44
2022/03/08 15:35:02;;;;;;;;;;;;;;;;;;5015981;28;19917;-45
2022/03/08 15:37:27;;;;;;;;;;;;;;;;;;5013427;28;19944;-45
2022/03/08 15:39:52;;;;;;;;;;;;;;;;;;5015823;28;19921;-44
2022/03/08 15:42:18;;;;;;;;;;;;;;;;;;5014587;28;20646;-43
2022/03/08 15:44:43;;;;;;;;;;;;;;;;;;5016319;28;19921;-42
2022/03/08 15:47:10;;;;;;;;;;;;;;;;;;5011867;28;19943;-46
2022/03/08 15:49:35;;;;;;;;;;;;;;;;;;5014172;28;19921;-43
2022/03/08 15:52:00;;;;;;;;;;;;;;;;;;5014693;28;19926;-46
2022/03/08 15:54:25;;;;;;;;;;;;;;;;;;5018277;28;19956;-43
2022/03/08 15:56:51;;;;;;;;;;;;;;;;;;5012725;28;20623;-44
2022/03/08 15:59:16;;;;;;;;;;;;;;;;;;5010164;28;20003;-42
2022/03/08 16:01:41;;;;;;;;;;;;;;;;;;5015678;28;20365;-44
2022/03/08 16:04:06;;;;;;;;;;;;;;;;;;5012018;28;19928;-43
2022/03/08 16:06:31;;;;;;;;;;;;;;;;;;5016503;28;19917;-45
2022/03/08 16:08:57;;;;;;;;;;;;;;;;;;5012318;28;19917;-47
2022/03/08 16:11:22;;;;;;;;;;;;;;;;;;5013922;28;19932;-44
2022/03/08 16:13:47;;;;;;;;;;;;;;;;;;5016315;28;19921;-42
2022/03/08 16:16:12;;;;;;;;;;;;;;;;;;5015483;28;19917;-42
2022/03/08 16:18:37;;;;;;;;;;;;;;;;;;5017264;28;20361;-43
2022/03/08 16:21:05;;;;;;;;;;;;;;;;;;5015290;28;20407;-43
2022/03/08 16:23:31;;;;;;;;;;;;;;;;;;5016661;28;19932;-42
2022/03/08 16:25:56;;;;;;;;;;;;;;;;;;5012954;28;19925;-44
2022/03/08 16:28:21;;;;;;;;;;;;;;;;;;5010904;28;20383;-41
2022/03/08 16:30:46;;;;;;;;;;;;;;;;;;5015637;28;19925;-43
2022/03/08 16:33:11;;;;;;;;;;;;;;;;;;5015202;28;20410;-45
2022/03/08 16:35:37;;;;;;;;;;;;;;;;;;5013996;28;20364;-44
2022/03/08 16:38:02;;;;;;;;;;;;;;;;;;5013471;28;19922;-43